CPA889 KJFK-CYVR
Flight info
| Callsign | CPA889 |
|---|---|
| Flight time | 5h 14m |
| Altitude | 36000 |
| Route | DCT GAYEL Q818 WOZEE DCT BOVOX DCT KASED DCT RNAND DCT UZMEF DCT KP15K DCT KP18I DCT KP21E DCT KU21W DCT KU18O DCT MLP DCT GEG DCT METOW GRIZZ9 |
| Aircraft | B77W/H-SDE2E3FGHIJ5LORVWXY/LB1D1 |
Departure
| Time | 2026-05-08 22:57 |
|---|---|
| Airport | John F. Kennedy International Airport (KJFK) |
Arrival
| Time | 2026-05-09 04:11 |
|---|---|
| Airport | Vancouver International Airport (CYVR) |
| Time | Latitude | Longitude | Altitude | Speed | Heading |
|---|---|---|---|---|---|
| 2026-05-08 22:06 | 40.65075 | -73.79020 | 28 ft | 0 kts | 309° |
| 2026-05-08 22:34 | 40.65066 | -73.79007 | 28 ft | 2 kts | 309° |
| 2026-05-08 22:34 | 40.65056 | -73.78992 | 28 ft | 2 kts | 327° |
| 2026-05-08 22:35 | 40.65042 | -73.78985 | 28 ft | 2 kts | 353° |
| 2026-05-08 22:35 | 40.65027 | -73.78985 | 28 ft | 2 kts | 14° |
| 2026-05-08 22:35 | 40.65014 | -73.78992 | 28 ft | 2 kts | 37° |
| 2026-05-08 22:35 | 40.65004 | -73.79006 | 28 ft | 1 kts | 58° |
| 2026-05-08 22:36 | 40.65001 | -73.79012 | 28 ft | 0 kts | 61° |
| 2026-05-08 22:38 | 40.65019 | -73.78971 | 28 ft | 8 kts | 54° |
| 2026-05-08 22:38 | 40.65059 | -73.78923 | 28 ft | 6 kts | 15° |
| 2026-05-08 22:39 | 40.65079 | -73.78917 | 28 ft | 0 kts | 12° |
| 2026-05-08 22:39 | 40.65099 | -73.78911 | 28 ft | 6 kts | 12° |
| 2026-05-08 22:39 | 40.65120 | -73.78889 | 28 ft | 6 kts | 58° |
| 2026-05-08 22:39 | 40.65140 | -73.78803 | 28 ft | 13 kts | 79° |
| 2026-05-08 22:40 | 40.65183 | -73.78661 | 28 ft | 20 kts | 62° |
| 2026-05-08 22:40 | 40.65231 | -73.78549 | 28 ft | 8 kts | 60° |
| 2026-05-08 22:40 | 40.65245 | -73.78513 | 28 ft | 7 kts | 62° |
| 2026-05-08 22:40 | 40.65261 | -73.78451 | 28 ft | 8 kts | 81° |
| 2026-05-08 22:41 | 40.65239 | -73.78329 | 28 ft | 17 kts | 114° |
| 2026-05-08 22:41 | 40.65187 | -73.78203 | 28 ft | 15 kts | 120° |
| 2026-05-08 22:41 | 40.65130 | -73.78078 | 28 ft | 16 kts | 121° |
| 2026-05-08 22:41 | 40.65068 | -73.77942 | 28 ft | 17 kts | 121° |
| 2026-05-08 22:42 | 40.65008 | -73.77814 | 28 ft | 15 kts | 120° |
| 2026-05-08 22:42 | 40.64955 | -73.77696 | 28 ft | 14 kts | 120° |
| 2026-05-08 22:42 | 40.64898 | -73.77568 | 28 ft | 16 kts | 120° |
| 2026-05-08 22:42 | 40.64834 | -73.77422 | 28 ft | 20 kts | 121° |
| 2026-05-08 22:43 | 40.64763 | -73.77269 | 28 ft | 18 kts | 121° |
| 2026-05-08 22:43 | 40.64692 | -73.77136 | 28 ft | 17 kts | 135° |
| 2026-05-08 22:43 | 40.64628 | -73.77092 | 28 ft | 10 kts | 172° |
| 2026-05-08 22:43 | 40.64508 | -73.77090 | 28 ft | 21 kts | 181° |
| 2026-05-08 22:44 | 40.64427 | -73.77056 | 28 ft | 13 kts | 112° |
| 2026-05-08 22:44 | 40.64384 | -73.76904 | 28 ft | 19 kts | 118° |
| 2026-05-08 22:44 | 40.64330 | -73.76784 | 28 ft | 11 kts | 121° |
| 2026-05-08 22:44 | 40.64294 | -73.76705 | 28 ft | 7 kts | 120° |
| 2026-05-08 22:45 | 40.64270 | -73.76666 | 28 ft | 5 kts | 144° |
| 2026-05-08 22:45 | 40.64224 | -73.76654 | 28 ft | 9 kts | 184° |
| 2026-05-08 22:45 | 40.64161 | -73.76691 | 28 ft | 11 kts | 213° |
| 2026-05-08 22:45 | 40.64120 | -73.76724 | 28 ft | 0 kts | 210° |
| 2026-05-08 22:51 | 40.64102 | -73.76739 | 28 ft | 8 kts | 210° |
| 2026-05-08 22:51 | 40.64024 | -73.76800 | 28 ft | 17 kts | 211° |
| 2026-05-08 22:51 | 40.63917 | -73.76884 | 28 ft | 17 kts | 211° |
| 2026-05-08 22:52 | 40.63810 | -73.76914 | 28 ft | 15 kts | 182° |
| 2026-05-08 22:52 | 40.63708 | -73.76916 | 28 ft | 14 kts | 181° |
| 2026-05-08 22:52 | 40.63614 | -73.76918 | 28 ft | 12 kts | 181° |
| 2026-05-08 22:52 | 40.63528 | -73.76920 | 28 ft | 12 kts | 181° |
| 2026-05-08 22:53 | 40.63447 | -73.76929 | 28 ft | 11 kts | 186° |
| 2026-05-08 22:53 | 40.63369 | -73.76942 | 28 ft | 11 kts | 186° |
| 2026-05-08 22:53 | 40.63293 | -73.76945 | 28 ft | 10 kts | 181° |
| 2026-05-08 22:53 | 40.63220 | -73.76948 | 28 ft | 10 kts | 180° |
| 2026-05-08 22:54 | 40.63137 | -73.76958 | 28 ft | 12 kts | 192° |
| 2026-05-08 22:54 | 40.63062 | -73.76997 | 28 ft | 11 kts | 208° |
| 2026-05-08 22:54 | 40.62998 | -73.77045 | 28 ft | 10 kts | 211° |
| 2026-05-08 22:54 | 40.62956 | -73.77079 | 28 ft | 2 kts | 211° |
| 2026-05-08 22:55 | 40.62940 | -73.77091 | 28 ft | 2 kts | 210° |
| 2026-05-08 22:55 | 40.62924 | -73.77103 | 28 ft | 3 kts | 210° |
| 2026-05-08 22:55 | 40.62877 | -73.77140 | 28 ft | 12 kts | 210° |
| 2026-05-08 22:55 | 40.62829 | -73.77207 | 28 ft | 8 kts | 263° |
| 2026-05-08 22:56 | 40.62847 | -73.77279 | 28 ft | 8 kts | 297° |
| 2026-05-08 22:56 | 40.62889 | -73.77379 | 28 ft | 29 kts | 300° |
| 2026-05-08 22:56 | 40.63171 | -73.77995 | 28 ft | 124 kts | 301° |
| 2026-05-08 22:56 | 40.63756 | -73.79281 | 186 ft | 192 kts | 302° |
| 2026-05-08 22:57 | 40.64403 | -73.80797 | 1437 ft | 191 kts | 289° |
| 2026-05-08 22:57 | 40.64566 | -73.82328 | 2533 ft | 176 kts | 268° |
| 2026-05-08 22:57 | 40.64203 | -73.83943 | 3023 ft | 195 kts | 241° |
| 2026-05-08 22:57 | 40.63189 | -73.85205 | 3577 ft | 214 kts | 208° |
| 2026-05-08 22:58 | 40.61710 | -73.85503 | 4324 ft | 227 kts | 176° |
| 2026-05-08 22:58 | 40.60245 | -73.84669 | 5026 ft | 241 kts | 143° |
| 2026-05-08 22:58 | 40.59276 | -73.82903 | 5802 ft | 248 kts | 111° |
| 2026-05-08 22:58 | 40.59057 | -73.80627 | 6415 ft | 256 kts | 81° |
| 2026-05-08 22:59 | 40.59336 | -73.78317 | 7185 ft | 259 kts | 77° |
| 2026-05-08 22:59 | 40.59675 | -73.75970 | 7901 ft | 264 kts | 71° |
| 2026-05-08 22:59 | 40.60499 | -73.73856 | 8522 ft | 261 kts | 42° |
| 2026-05-08 22:59 | 40.61749 | -73.72134 | 9252 ft | 261 kts | 38° |
| 2026-05-08 23:00 | 40.63032 | -73.70466 | 9999 ft | 263 kts | 37° |
| 2026-05-08 23:00 | 40.64326 | -73.68783 | 10741 ft | 264 kts | 37° |
| 2026-05-08 23:00 | 40.65612 | -73.67065 | 11520 ft | 264 kts | 37° |
| 2026-05-08 23:00 | 40.66899 | -73.65282 | 12060 ft | 276 kts | 37° |
| 2026-05-08 23:01 | 40.68264 | -73.63393 | 12455 ft | 293 kts | 37° |
| 2026-05-08 23:01 | 40.69712 | -73.61410 | 12844 ft | 311 kts | 37° |
| 2026-05-08 23:01 | 40.71258 | -73.59300 | 13318 ft | 328 kts | 37° |
| 2026-05-08 23:01 | 40.72884 | -73.57107 | 13777 ft | 345 kts | 37° |
| 2026-05-08 23:02 | 40.74600 | -73.54801 | 14253 ft | 362 kts | 37° |
| 2026-05-08 23:02 | 40.76400 | -73.52380 | 14735 ft | 377 kts | 37° |
| 2026-05-08 23:02 | 40.78287 | -73.49963 | 15334 ft | 384 kts | 31° |
| 2026-05-08 23:02 | 40.80491 | -73.48046 | 16025 ft | 380 kts | 18° |
| 2026-05-08 23:03 | 40.82947 | -73.46779 | 16756 ft | 375 kts | 7° |
| 2026-05-08 23:03 | 40.85500 | -73.46151 | 16935 ft | 367 kts | 356° |
| 2026-05-08 23:03 | 40.87998 | -73.46172 | 16982 ft | 358 kts | 348° |
| 2026-05-08 23:03 | 40.90538 | -73.46490 | 16963 ft | 368 kts | 343° |
| 2026-05-08 23:04 | 40.93021 | -73.47304 | 16963 ft | 371 kts | 334° |
| 2026-05-08 23:04 | 40.95353 | -73.48716 | 17450 ft | 375 kts | 324° |
| 2026-05-08 23:04 | 40.97461 | -73.50684 | 18560 ft | 367 kts | 315° |
| 2026-05-08 23:04 | 40.99241 | -73.53025 | 19616 ft | 362 kts | 307° |
| 2026-05-08 23:05 | 41.00739 | -73.55695 | 20477 ft | 363 kts | 302° |
| 2026-05-08 23:05 | 41.02143 | -73.58457 | 21270 ft | 367 kts | 301° |
| 2026-05-08 23:05 | 41.03562 | -73.61269 | 21975 ft | 371 kts | 301° |
| 2026-05-08 23:05 | 41.04996 | -73.64113 | 22729 ft | 373 kts | 301° |
| 2026-05-08 23:06 | 41.06424 | -73.66947 | 23428 ft | 377 kts | 301° |
| 2026-05-08 23:06 | 41.07890 | -73.69861 | 24062 ft | 381 kts | 301° |
| 2026-05-08 23:06 | 41.09369 | -73.72804 | 24717 ft | 385 kts | 301° |
| 2026-05-08 23:06 | 41.10847 | -73.75748 | 24962 ft | 394 kts | 300° |
| 2026-05-08 23:07 | 41.12368 | -73.78780 | 25668 ft | 397 kts | 300° |
| 2026-05-08 23:07 | 41.13878 | -73.81789 | 26732 ft | 392 kts | 300° |
| 2026-05-08 23:07 | 41.15375 | -73.84776 | 27550 ft | 391 kts | 300° |
| 2026-05-08 23:07 | 41.16882 | -73.87789 | 28085 ft | 397 kts | 300° |
| 2026-05-08 23:08 | 41.18422 | -73.90872 | 28612 ft | 402 kts | 299° |
| 2026-05-08 23:08 | 41.19965 | -73.93962 | 29221 ft | 406 kts | 299° |
| 2026-05-08 23:08 | 41.21508 | -73.97057 | 29988 ft | 405 kts | 300° |
| 2026-05-08 23:08 | 41.23048 | -74.00143 | 30891 ft | 400 kts | 300° |
| 2026-05-08 23:09 | 41.24573 | -74.03202 | 31746 ft | 394 kts | 299° |
| 2026-05-08 23:09 | 41.26083 | -74.06233 | 32553 ft | 388 kts | 298° |
| 2026-05-08 23:09 | 41.27554 | -74.09191 | 33151 ft | 385 kts | 298° |
| 2026-05-08 23:09 | 41.29019 | -74.12143 | 33573 ft | 384 kts | 298° |
| 2026-05-08 23:10 | 41.30492 | -74.15113 | 33911 ft | 385 kts | 298° |
| 2026-05-08 23:10 | 41.31982 | -74.18121 | 34325 ft | 385 kts | 298° |
| 2026-05-08 23:10 | 41.33438 | -74.21061 | 34819 ft | 382 kts | 298° |
| 2026-05-08 23:10 | 41.34899 | -74.24016 | 35185 ft | 382 kts | 298° |
| 2026-05-08 23:11 | 41.36363 | -74.26982 | 35361 ft | 387 kts | 298° |
| 2026-05-08 23:11 | 41.37838 | -74.29973 | 35541 ft | 392 kts | 298° |
| 2026-05-08 23:11 | 41.39331 | -74.33001 | 35846 ft | 393 kts | 298° |
| 2026-05-08 23:11 | 41.40834 | -74.36049 | 35913 ft | 394 kts | 298° |
| 2026-05-08 23:12 | 41.43562 | -74.42242 | 35930 ft | 386 kts | 295° |
| 2026-05-08 23:12 | 41.46249 | -74.48530 | 35926 ft | 400 kts | 296° |
| 2026-05-08 23:13 | 41.49056 | -74.55066 | 35937 ft | 413 kts | 295° |
| 2026-05-08 23:13 | 41.51911 | -74.61693 | 35928 ft | 412 kts | 296° |
| 2026-05-08 23:14 | 41.54769 | -74.68333 | 35946 ft | 412 kts | 295° |
| 2026-05-08 23:14 | 41.57619 | -74.74966 | 35949 ft | 416 kts | 296° |
| 2026-05-08 23:15 | 41.60495 | -74.81673 | 35947 ft | 414 kts | 296° |
| 2026-05-08 23:15 | 41.63343 | -74.88336 | 35950 ft | 417 kts | 296° |
| 2026-05-08 23:16 | 41.66201 | -74.95033 | 35927 ft | 412 kts | 296° |
| 2026-05-08 23:16 | 41.69041 | -75.01707 | 35950 ft | 416 kts | 296° |
| 2026-05-08 23:17 | 41.71902 | -75.08445 | 35934 ft | 423 kts | 296° |
| 2026-05-08 23:17 | 41.74806 | -75.15297 | 35934 ft | 424 kts | 295° |
| 2026-05-08 23:18 | 41.77719 | -75.22186 | 35939 ft | 425 kts | 295° |
| 2026-05-08 23:18 | 41.80610 | -75.29040 | 35938 ft | 424 kts | 296° |
| 2026-05-08 23:19 | 41.83513 | -75.35941 | 35934 ft | 427 kts | 295° |
| 2026-05-08 23:19 | 41.86418 | -75.42858 | 35928 ft | 425 kts | 296° |
| 2026-05-08 23:20 | 41.89314 | -75.49772 | 35918 ft | 426 kts | 295° |
| 2026-05-08 23:20 | 41.92221 | -75.56731 | 35931 ft | 431 kts | 296° |
| 2026-05-08 23:21 | 41.95130 | -75.63707 | 35928 ft | 427 kts | 296° |
| 2026-05-08 23:21 | 41.98042 | -75.70709 | 35948 ft | 429 kts | 295° |
| 2026-05-08 23:22 | 42.00920 | -75.77644 | 35948 ft | 427 kts | 295° |
| 2026-05-08 23:22 | 42.03822 | -75.84658 | 35963 ft | 430 kts | 295° |
| 2026-05-08 23:23 | 42.06696 | -75.91614 | 35953 ft | 427 kts | 295° |
| 2026-05-08 23:23 | 42.09584 | -75.98628 | 35913 ft | 429 kts | 295° |
| 2026-05-08 23:24 | 42.12465 | -76.05638 | 35919 ft | 429 kts | 295° |
| 2026-05-08 23:24 | 42.15366 | -76.12716 | 35907 ft | 425 kts | 294° |
| 2026-05-08 23:25 | 42.17785 | -76.19946 | 35914 ft | 428 kts | 290° |
| 2026-05-08 23:25 | 42.20124 | -76.27238 | 35750 ft | 415 kts | 291° |
| 2026-05-08 23:26 | 42.21263 | -76.30795 | 35291 ft | 414 kts | 290° |
| 2026-05-08 23:26 | 42.22416 | -76.34405 | 34905 ft | 428 kts | 291° |
| 2026-05-08 23:26 | 42.23577 | -76.38045 | 34515 ft | 429 kts | 291° |
| 2026-05-08 23:26 | 42.24748 | -76.41712 | 34111 ft | 426 kts | 291° |
| 2026-05-08 23:27 | 42.25921 | -76.45391 | 33926 ft | 422 kts | 291° |
| 2026-05-08 23:27 | 42.27074 | -76.49013 | 33934 ft | 425 kts | 291° |
| 2026-05-08 23:27 | 42.29404 | -76.56349 | 33909 ft | 426 kts | 290° |
| 2026-05-08 23:28 | 42.31727 | -76.63683 | 33912 ft | 426 kts | 291° |
| 2026-05-08 23:28 | 42.34056 | -76.71056 | 33921 ft | 425 kts | 290° |
| 2026-05-08 23:29 | 42.36358 | -76.78362 | 33943 ft | 424 kts | 290° |
| 2026-05-08 23:29 | 42.38663 | -76.85699 | 33914 ft | 425 kts | 290° |
| 2026-05-08 23:30 | 42.40948 | -76.92993 | 33925 ft | 427 kts | 290° |
| 2026-05-08 23:30 | 42.42110 | -76.96710 | 34095 ft | 428 kts | 290° |
| 2026-05-08 23:30 | 42.43260 | -77.00391 | 34451 ft | 426 kts | 290° |
| 2026-05-08 23:31 | 42.44405 | -77.04063 | 34814 ft | 424 kts | 290° |
| 2026-05-08 23:31 | 42.45544 | -77.07722 | 35137 ft | 424 kts | 290° |
| 2026-05-08 23:31 | 42.46688 | -77.11407 | 35343 ft | 424 kts | 290° |
| 2026-05-08 23:31 | 42.47831 | -77.15089 | 35621 ft | 425 kts | 290° |
| 2026-05-08 23:32 | 42.48963 | -77.18746 | 35848 ft | 426 kts | 290° |
| 2026-05-08 23:32 | 42.50108 | -77.22446 | 35897 ft | 427 kts | 290° |
| 2026-05-08 23:32 | 42.52388 | -77.29829 | 35904 ft | 423 kts | 290° |
| 2026-05-08 23:33 | 42.54652 | -77.37182 | 35898 ft | 426 kts | 290° |
| 2026-05-08 23:33 | 42.56918 | -77.44563 | 35896 ft | 426 kts | 290° |
| 2026-05-08 23:34 | 42.59190 | -77.51981 | 35887 ft | 426 kts | 290° |
| 2026-05-08 23:34 | 42.61439 | -77.59350 | 35899 ft | 425 kts | 290° |
| 2026-05-08 23:35 | 42.63695 | -77.66760 | 35904 ft | 425 kts | 289° |
| 2026-05-08 23:35 | 42.65942 | -77.74162 | 35911 ft | 425 kts | 289° |
| 2026-05-08 23:36 | 42.68068 | -77.81630 | 35911 ft | 427 kts | 288° |
| 2026-05-08 23:36 | 42.70156 | -77.89150 | 35896 ft | 428 kts | 288° |
| 2026-05-08 23:37 | 42.72253 | -77.96701 | 35888 ft | 425 kts | 288° |
| 2026-05-08 23:37 | 42.74339 | -78.04225 | 35892 ft | 427 kts | 288° |
| 2026-05-08 23:38 | 42.76410 | -78.11710 | 35886 ft | 426 kts | 288° |
| 2026-05-08 23:38 | 42.78492 | -78.19258 | 35891 ft | 426 kts | 288° |
| 2026-05-08 23:39 | 42.80566 | -78.26796 | 35877 ft | 425 kts | 288° |
| 2026-05-08 23:39 | 42.82630 | -78.34322 | 35883 ft | 427 kts | 288° |
| 2026-05-08 23:40 | 42.84689 | -78.41849 | 35895 ft | 426 kts | 288° |
| 2026-05-08 23:40 | 42.86763 | -78.49456 | 35891 ft | 428 kts | 288° |
| 2026-05-08 23:41 | 42.88820 | -78.57021 | 35893 ft | 428 kts | 288° |
| 2026-05-08 23:41 | 42.90876 | -78.64613 | 35905 ft | 430 kts | 288° |
| 2026-05-08 23:42 | 42.92979 | -78.72215 | 35911 ft | 431 kts | 291° |
| 2026-05-08 23:42 | 42.96206 | -78.79111 | 35919 ft | 435 kts | 302° |
| 2026-05-08 23:43 | 42.99842 | -78.85712 | 35895 ft | 437 kts | 302° |
| 2026-05-08 23:43 | 43.03481 | -78.92350 | 35917 ft | 437 kts | 302° |
| 2026-05-08 23:44 | 43.07097 | -78.98967 | 35892 ft | 438 kts | 302° |
| 2026-05-08 23:44 | 43.10735 | -79.05648 | 35901 ft | 436 kts | 302° |
| 2026-05-08 23:45 | 43.14378 | -79.12358 | 35896 ft | 442 kts | 302° |
| 2026-05-08 23:45 | 43.17990 | -79.19022 | 35889 ft | 437 kts | 302° |
| 2026-05-08 23:46 | 43.21619 | -79.25737 | 35890 ft | 441 kts | 302° |
| 2026-05-08 23:46 | 43.25262 | -79.32493 | 35890 ft | 440 kts | 302° |
| 2026-05-08 23:47 | 43.28879 | -79.39215 | 35892 ft | 439 kts | 302° |
| 2026-05-08 23:47 | 43.32470 | -79.45904 | 35864 ft | 437 kts | 302° |
| 2026-05-08 23:48 | 43.36057 | -79.52702 | 35876 ft | 437 kts | 298° |
| 2026-05-08 23:48 | 43.39173 | -79.59788 | 35869 ft | 439 kts | 297° |
| 2026-05-08 23:49 | 43.42292 | -79.66982 | 35887 ft | 438 kts | 296° |
| 2026-05-08 23:49 | 43.45409 | -79.74189 | 35879 ft | 438 kts | 297° |
| 2026-05-08 23:50 | 43.48504 | -79.81360 | 35871 ft | 440 kts | 296° |
| 2026-05-08 23:50 | 43.51637 | -79.88636 | 35864 ft | 440 kts | 297° |
| 2026-05-08 23:51 | 43.54729 | -79.95833 | 35870 ft | 440 kts | 296° |
| 2026-05-08 23:51 | 43.57861 | -80.03142 | 35905 ft | 443 kts | 296° |
| 2026-05-08 23:52 | 43.60945 | -80.10356 | 35836 ft | 440 kts | 297° |
| 2026-05-08 23:52 | 43.64059 | -80.17660 | 35868 ft | 443 kts | 297° |
| 2026-05-08 23:53 | 43.67165 | -80.24963 | 35864 ft | 443 kts | 297° |
| 2026-05-08 23:53 | 43.70260 | -80.32258 | 35852 ft | 441 kts | 297° |
| 2026-05-08 23:54 | 43.73353 | -80.39568 | 35848 ft | 445 kts | 297° |
| 2026-05-08 23:55 | 43.77995 | -80.50571 | 35825 ft | 439 kts | 297° |
| 2026-05-08 23:55 | 43.81065 | -80.57875 | 35848 ft | 445 kts | 297° |
| 2026-05-08 23:56 | 43.84179 | -80.65301 | 35835 ft | 446 kts | 296° |
| 2026-05-08 23:56 | 43.87273 | -80.72697 | 35851 ft | 449 kts | 296° |
| 2026-05-08 23:57 | 43.90374 | -80.80128 | 35857 ft | 447 kts | 296° |
| 2026-05-08 23:57 | 43.93480 | -80.87590 | 35825 ft | 444 kts | 296° |
| 2026-05-08 23:58 | 43.96556 | -80.95002 | 35851 ft | 448 kts | 296° |
| 2026-05-08 23:58 | 43.99639 | -81.02448 | 35846 ft | 448 kts | 296° |
| 2026-05-08 23:59 | 44.02718 | -81.09904 | 35809 ft | 446 kts | 296° |
| 2026-05-08 23:59 | 44.05807 | -81.17406 | 35850 ft | 451 kts | 297° |
| 2026-05-09 00:00 | 44.08909 | -81.24959 | 35820 ft | 449 kts | 297° |
| 2026-05-09 00:00 | 44.11995 | -81.32491 | 35826 ft | 450 kts | 297° |
| 2026-05-09 00:01 | 44.15080 | -81.40041 | 35802 ft | 450 kts | 297° |
| 2026-05-09 00:01 | 44.18144 | -81.47561 | 35820 ft | 448 kts | 297° |
| 2026-05-09 00:02 | 44.21203 | -81.55087 | 35826 ft | 449 kts | 296° |
| 2026-05-09 00:02 | 44.24249 | -81.62601 | 35829 ft | 445 kts | 297° |
| 2026-05-09 00:03 | 44.27311 | -81.70177 | 35836 ft | 449 kts | 296° |
| 2026-05-09 00:03 | 44.30354 | -81.77723 | 35815 ft | 444 kts | 296° |
| 2026-05-09 00:04 | 44.33389 | -81.85272 | 35822 ft | 449 kts | 296° |
| 2026-05-09 00:04 | 44.36414 | -81.92814 | 35832 ft | 447 kts | 296° |
| 2026-05-09 00:05 | 44.39459 | -82.00429 | 35813 ft | 452 kts | 296° |
| 2026-05-09 00:05 | 44.42506 | -82.08068 | 35815 ft | 448 kts | 296° |
| 2026-05-09 00:06 | 44.45523 | -82.15653 | 35804 ft | 451 kts | 296° |
| 2026-05-09 00:06 | 44.48930 | -82.23006 | 35829 ft | 455 kts | 305° |
| 2026-05-09 00:07 | 44.52894 | -82.29882 | 35808 ft | 454 kts | 305° |
| 2026-05-09 00:07 | 44.56837 | -82.36743 | 35794 ft | 454 kts | 305° |
| 2026-05-09 00:08 | 44.60785 | -82.43649 | 35770 ft | 453 kts | 305° |
| 2026-05-09 00:08 | 44.64724 | -82.50568 | 35787 ft | 458 kts | 305° |
| 2026-05-09 00:09 | 44.68673 | -82.57523 | 35760 ft | 458 kts | 306° |
| 2026-05-09 00:09 | 44.72641 | -82.64532 | 35793 ft | 459 kts | 305° |
| 2026-05-09 00:10 | 44.76592 | -82.71529 | 35799 ft | 460 kts | 305° |
| 2026-05-09 00:10 | 44.80567 | -82.78584 | 35765 ft | 457 kts | 305° |
| 2026-05-09 00:11 | 44.84517 | -82.85616 | 35769 ft | 462 kts | 305° |
| 2026-05-09 00:11 | 44.88475 | -82.92677 | 35797 ft | 462 kts | 305° |
| 2026-05-09 00:12 | 44.92423 | -82.99739 | 35803 ft | 459 kts | 305° |
| 2026-05-09 00:12 | 44.96396 | -83.06865 | 35783 ft | 462 kts | 305° |
| 2026-05-09 00:13 | 45.00343 | -83.13960 | 35793 ft | 461 kts | 305° |
| 2026-05-09 00:13 | 45.04301 | -83.21093 | 35771 ft | 460 kts | 305° |
| 2026-05-09 00:14 | 45.08246 | -83.28220 | 35770 ft | 462 kts | 305° |
| 2026-05-09 00:14 | 45.12186 | -83.35358 | 35778 ft | 461 kts | 305° |
| 2026-05-09 00:15 | 45.16134 | -83.42526 | 35790 ft | 461 kts | 305° |
| 2026-05-09 00:15 | 45.20061 | -83.49674 | 35795 ft | 462 kts | 305° |
| 2026-05-09 00:16 | 45.23988 | -83.56841 | 35796 ft | 462 kts | 305° |
| 2026-05-09 00:16 | 45.27913 | -83.64024 | 35773 ft | 461 kts | 305° |
| 2026-05-09 00:17 | 45.31440 | -83.71530 | 35791 ft | 459 kts | 297° |
| 2026-05-09 00:17 | 45.34566 | -83.79414 | 35788 ft | 459 kts | 297° |
| 2026-05-09 00:18 | 45.37686 | -83.87321 | 35786 ft | 461 kts | 297° |
| 2026-05-09 00:18 | 45.40822 | -83.95295 | 35787 ft | 460 kts | 297° |
| 2026-05-09 00:19 | 45.43930 | -84.03223 | 35787 ft | 461 kts | 297° |
| 2026-05-09 00:19 | 45.46936 | -84.10911 | 35773 ft | 460 kts | 297° |
| 2026-05-09 00:20 | 45.50026 | -84.18835 | 35766 ft | 460 kts | 297° |
| 2026-05-09 00:20 | 45.53131 | -84.26825 | 35764 ft | 462 kts | 297° |
| 2026-05-09 00:21 | 45.56212 | -84.34775 | 35763 ft | 460 kts | 297° |
| 2026-05-09 00:21 | 45.59304 | -84.42776 | 35773 ft | 462 kts | 297° |
| 2026-05-09 00:22 | 45.62381 | -84.50759 | 35770 ft | 460 kts | 297° |
| 2026-05-09 00:22 | 45.65455 | -84.58762 | 35776 ft | 461 kts | 297° |
| 2026-05-09 00:23 | 45.68531 | -84.66791 | 35772 ft | 461 kts | 296° |
| 2026-05-09 00:23 | 45.71588 | -84.74793 | 35783 ft | 460 kts | 296° |
| 2026-05-09 00:24 | 45.74630 | -84.82779 | 35779 ft | 461 kts | 296° |
| 2026-05-09 00:24 | 45.77693 | -84.90847 | 35767 ft | 461 kts | 296° |
| 2026-05-09 00:25 | 45.80727 | -84.98858 | 35764 ft | 460 kts | 296° |
| 2026-05-09 00:25 | 45.83765 | -85.06907 | 35740 ft | 461 kts | 296° |
| 2026-05-09 00:26 | 45.86803 | -85.14977 | 35742 ft | 462 kts | 296° |
| 2026-05-09 00:26 | 45.89840 | -85.23070 | 35740 ft | 462 kts | 296° |
| 2026-05-09 00:27 | 45.92865 | -85.31154 | 35740 ft | 462 kts | 297° |
| 2026-05-09 00:27 | 45.95905 | -85.39301 | 35735 ft | 462 kts | 296° |
| 2026-05-09 00:28 | 45.98925 | -85.47422 | 35730 ft | 464 kts | 297° |
| 2026-05-09 00:28 | 46.01954 | -85.55592 | 35733 ft | 463 kts | 297° |
| 2026-05-09 00:29 | 46.04965 | -85.63736 | 35734 ft | 462 kts | 297° |
| 2026-05-09 00:29 | 46.07974 | -85.71900 | 35745 ft | 464 kts | 296° |
| 2026-05-09 00:30 | 46.10980 | -85.80079 | 35744 ft | 463 kts | 296° |
| 2026-05-09 00:30 | 46.13979 | -85.88264 | 35737 ft | 464 kts | 296° |
| 2026-05-09 00:31 | 46.16976 | -85.96470 | 35738 ft | 465 kts | 296° |
| 2026-05-09 00:31 | 46.19970 | -86.04691 | 35740 ft | 464 kts | 296° |
| 2026-05-09 00:32 | 46.22952 | -86.12906 | 35735 ft | 464 kts | 296° |
| 2026-05-09 00:32 | 46.25941 | -86.21165 | 35719 ft | 463 kts | 296° |
| 2026-05-09 00:33 | 46.28921 | -86.29424 | 35711 ft | 463 kts | 296° |
| 2026-05-09 00:33 | 46.31874 | -86.37634 | 35706 ft | 465 kts | 296° |
| 2026-05-09 00:34 | 46.34842 | -86.45937 | 35704 ft | 464 kts | 296° |
| 2026-05-09 00:34 | 46.37730 | -86.54262 | 35699 ft | 464 kts | 296° |
| 2026-05-09 00:35 | 46.40611 | -86.62595 | 35704 ft | 465 kts | 296° |
| 2026-05-09 00:35 | 46.43495 | -86.70956 | 35712 ft | 465 kts | 295° |
| 2026-05-09 00:36 | 46.46371 | -86.79316 | 35713 ft | 465 kts | 295° |
| 2026-05-09 00:36 | 46.49243 | -86.87689 | 35710 ft | 465 kts | 295° |
| 2026-05-09 00:37 | 46.52108 | -86.96068 | 35710 ft | 465 kts | 295° |
| 2026-05-09 00:37 | 46.54969 | -87.04462 | 35710 ft | 464 kts | 295° |
| 2026-05-09 00:38 | 46.57814 | -87.12836 | 35688 ft | 464 kts | 295° |
| 2026-05-09 00:38 | 46.60657 | -87.21228 | 35716 ft | 465 kts | 295° |
| 2026-05-09 00:39 | 46.63486 | -87.29608 | 35691 ft | 463 kts | 295° |
| 2026-05-09 00:39 | 46.66322 | -87.38037 | 35690 ft | 463 kts | 295° |
| 2026-05-09 00:40 | 46.69129 | -87.46403 | 35698 ft | 463 kts | 295° |
| 2026-05-09 00:40 | 46.71945 | -87.54824 | 35685 ft | 464 kts | 295° |
| 2026-05-09 00:41 | 46.76176 | -87.67529 | 35680 ft | 465 kts | 295° |
| 2026-05-09 00:41 | 46.78965 | -87.75938 | 35672 ft | 465 kts | 295° |
| 2026-05-09 00:42 | 46.81771 | -87.84428 | 35670 ft | 464 kts | 295° |
| 2026-05-09 00:42 | 46.84566 | -87.92911 | 35667 ft | 465 kts | 295° |
| 2026-05-09 00:43 | 46.87355 | -88.01402 | 35667 ft | 464 kts | 295° |
| 2026-05-09 00:43 | 46.90131 | -88.09882 | 35665 ft | 464 kts | 295° |
| 2026-05-09 00:44 | 46.92896 | -88.18355 | 35647 ft | 464 kts | 295° |
| 2026-05-09 00:44 | 46.95655 | -88.26840 | 35636 ft | 465 kts | 295° |
| 2026-05-09 00:45 | 46.98423 | -88.35381 | 35648 ft | 465 kts | 295° |
| 2026-05-09 00:45 | 47.01178 | -88.43909 | 35673 ft | 464 kts | 295° |
| 2026-05-09 00:46 | 47.03915 | -88.52409 | 35670 ft | 464 kts | 295° |
| 2026-05-09 00:46 | 47.06672 | -88.61001 | 35667 ft | 465 kts | 295° |
| 2026-05-09 00:47 | 47.09397 | -88.69521 | 35668 ft | 465 kts | 295° |
| 2026-05-09 00:47 | 47.12138 | -88.78120 | 35665 ft | 465 kts | 294° |
| 2026-05-09 00:48 | 47.14867 | -88.86710 | 35654 ft | 465 kts | 295° |
| 2026-05-09 00:48 | 47.17587 | -88.95303 | 35642 ft | 465 kts | 295° |
| 2026-05-09 00:49 | 47.20296 | -89.03889 | 35652 ft | 465 kts | 295° |
| 2026-05-09 00:49 | 47.23012 | -89.12525 | 35657 ft | 465 kts | 295° |
| 2026-05-09 00:50 | 47.25701 | -89.21107 | 35656 ft | 464 kts | 295° |
| 2026-05-09 00:50 | 47.28400 | -89.29746 | 35660 ft | 465 kts | 294° |
| 2026-05-09 00:51 | 47.31074 | -89.38339 | 35655 ft | 464 kts | 295° |
| 2026-05-09 00:51 | 47.33749 | -89.46964 | 35651 ft | 465 kts | 295° |
| 2026-05-09 00:52 | 47.36427 | -89.55627 | 35646 ft | 464 kts | 295° |
| 2026-05-09 00:52 | 47.39084 | -89.64252 | 35641 ft | 464 kts | 295° |
| 2026-05-09 00:53 | 47.41739 | -89.72899 | 35643 ft | 465 kts | 294° |
| 2026-05-09 00:53 | 47.44401 | -89.81599 | 35640 ft | 465 kts | 294° |
| 2026-05-09 00:54 | 47.47042 | -89.90262 | 35640 ft | 464 kts | 294° |
| 2026-05-09 00:54 | 47.49676 | -89.98948 | 35637 ft | 464 kts | 293° |
| 2026-05-09 00:55 | 47.52025 | -90.07770 | 35641 ft | 464 kts | 291° |
| 2026-05-09 00:55 | 47.54348 | -90.16713 | 35636 ft | 465 kts | 291° |
| 2026-05-09 00:56 | 47.56649 | -90.25604 | 35636 ft | 466 kts | 291° |
| 2026-05-09 00:56 | 47.58936 | -90.34474 | 35639 ft | 464 kts | 291° |
| 2026-05-09 00:57 | 47.61243 | -90.43462 | 35636 ft | 464 kts | 291° |
| 2026-05-09 00:57 | 47.63528 | -90.52394 | 35629 ft | 464 kts | 291° |
| 2026-05-09 00:58 | 47.65799 | -90.61305 | 35627 ft | 465 kts | 291° |
| 2026-05-09 00:58 | 47.68061 | -90.70222 | 35643 ft | 465 kts | 291° |
| 2026-05-09 00:59 | 47.70320 | -90.79159 | 35629 ft | 465 kts | 291° |
| 2026-05-09 00:59 | 47.72574 | -90.88107 | 35646 ft | 465 kts | 291° |
| 2026-05-09 01:00 | 47.74828 | -90.97096 | 35645 ft | 465 kts | 291° |
| 2026-05-09 01:00 | 47.77070 | -91.06071 | 35634 ft | 465 kts | 291° |
| 2026-05-09 01:01 | 47.79303 | -91.15046 | 35616 ft | 465 kts | 291° |
| 2026-05-09 01:01 | 47.81534 | -91.24050 | 35605 ft | 465 kts | 291° |
| 2026-05-09 01:02 | 47.83759 | -91.33067 | 35622 ft | 466 kts | 291° |
| 2026-05-09 01:02 | 47.85963 | -91.42030 | 35618 ft | 464 kts | 291° |
| 2026-05-09 01:03 | 47.88181 | -91.51091 | 35601 ft | 466 kts | 291° |
| 2026-05-09 01:03 | 47.90379 | -91.60105 | 35636 ft | 465 kts | 291° |
| 2026-05-09 01:04 | 47.92587 | -91.69199 | 35642 ft | 465 kts | 290° |
| 2026-05-09 01:04 | 47.94758 | -91.78175 | 35634 ft | 466 kts | 290° |
| 2026-05-09 01:05 | 47.96936 | -91.87218 | 35609 ft | 465 kts | 290° |
| 2026-05-09 01:06 | 48.00077 | -92.00879 | 35629 ft | 467 kts | 285° |
| 2026-05-09 01:06 | 48.01483 | -92.10407 | 35623 ft | 468 kts | 284° |
| 2026-05-09 01:07 | 48.02831 | -92.19854 | 35652 ft | 467 kts | 284° |
| 2026-05-09 01:07 | 48.04164 | -92.29277 | 35627 ft | 467 kts | 284° |
| 2026-05-09 01:08 | 48.05501 | -92.38788 | 35638 ft | 466 kts | 284° |
| 2026-05-09 01:08 | 48.06819 | -92.48225 | 35636 ft | 466 kts | 284° |
| 2026-05-09 01:09 | 48.08131 | -92.57686 | 35653 ft | 467 kts | 284° |
| 2026-05-09 01:09 | 48.09433 | -92.67136 | 35644 ft | 465 kts | 283° |
| 2026-05-09 01:10 | 48.10725 | -92.76569 | 35670 ft | 465 kts | 283° |
| 2026-05-09 01:10 | 48.12013 | -92.86034 | 35665 ft | 466 kts | 283° |
| 2026-05-09 01:11 | 48.13290 | -92.95485 | 35654 ft | 466 kts | 283° |
| 2026-05-09 01:11 | 48.14561 | -93.04952 | 35664 ft | 465 kts | 283° |
| 2026-05-09 01:12 | 48.15827 | -93.14447 | 35665 ft | 466 kts | 283° |
| 2026-05-09 01:12 | 48.17078 | -93.23895 | 35655 ft | 465 kts | 283° |
| 2026-05-09 01:13 | 48.18327 | -93.33385 | 35648 ft | 465 kts | 283° |
| 2026-05-09 01:13 | 48.19562 | -93.42834 | 35641 ft | 465 kts | 283° |
| 2026-05-09 01:14 | 48.20792 | -93.52312 | 35655 ft | 463 kts | 283° |
| 2026-05-09 01:14 | 48.22023 | -93.61858 | 35655 ft | 464 kts | 283° |
| 2026-05-09 01:15 | 48.23236 | -93.71330 | 35645 ft | 465 kts | 283° |
| 2026-05-09 01:15 | 48.24439 | -93.80788 | 35661 ft | 464 kts | 283° |
| 2026-05-09 01:16 | 48.25640 | -93.90300 | 35645 ft | 463 kts | 283° |
| 2026-05-09 01:16 | 48.26826 | -93.99760 | 35660 ft | 464 kts | 283° |
| 2026-05-09 01:17 | 48.28587 | -94.13921 | 35653 ft | 463 kts | 283° |
| 2026-05-09 01:17 | 48.29758 | -94.23427 | 35675 ft | 464 kts | 283° |
| 2026-05-09 01:18 | 48.30915 | -94.32886 | 35668 ft | 463 kts | 283° |
| 2026-05-09 01:18 | 48.32062 | -94.42333 | 35671 ft | 462 kts | 283° |
| 2026-05-09 01:19 | 48.33203 | -94.51797 | 35674 ft | 462 kts | 283° |
| 2026-05-09 01:19 | 48.34338 | -94.61269 | 35673 ft | 463 kts | 283° |
| 2026-05-09 01:20 | 48.35459 | -94.70705 | 35663 ft | 462 kts | 283° |
| 2026-05-09 01:20 | 48.36581 | -94.80220 | 35677 ft | 461 kts | 283° |
| 2026-05-09 01:21 | 48.37691 | -94.89702 | 35671 ft | 461 kts | 283° |
| 2026-05-09 01:21 | 48.38800 | -94.99240 | 35660 ft | 462 kts | 283° |
| 2026-05-09 01:22 | 48.39888 | -95.08679 | 35685 ft | 462 kts | 283° |
| 2026-05-09 01:22 | 48.40976 | -95.18182 | 35682 ft | 462 kts | 283° |
| 2026-05-09 01:23 | 48.42061 | -95.27734 | 35681 ft | 462 kts | 283° |
| 2026-05-09 01:23 | 48.43126 | -95.37175 | 35682 ft | 463 kts | 283° |
| 2026-05-09 01:24 | 48.44191 | -95.46702 | 35680 ft | 460 kts | 283° |
| 2026-05-09 01:24 | 48.45244 | -95.56184 | 35678 ft | 462 kts | 283° |
| 2026-05-09 01:25 | 48.46287 | -95.65665 | 35679 ft | 458 kts | 283° |
| 2026-05-09 01:25 | 48.47323 | -95.75147 | 35703 ft | 459 kts | 283° |
| 2026-05-09 01:26 | 48.48349 | -95.84609 | 35662 ft | 460 kts | 283° |
| 2026-05-09 01:26 | 48.49363 | -95.94039 | 35688 ft | 459 kts | 283° |
| 2026-05-09 01:27 | 48.50089 | -96.03547 | 35694 ft | 461 kts | 278° |
| 2026-05-09 01:27 | 48.50435 | -96.13195 | 35679 ft | 461 kts | 277° |
| 2026-05-09 01:28 | 48.50762 | -96.22834 | 35668 ft | 461 kts | 277° |
| 2026-05-09 01:28 | 48.51076 | -96.32455 | 35697 ft | 462 kts | 277° |
| 2026-05-09 01:29 | 48.51380 | -96.42084 | 35674 ft | 460 kts | 277° |
| 2026-05-09 01:29 | 48.51676 | -96.51693 | 35687 ft | 461 kts | 278° |
| 2026-05-09 01:30 | 48.51963 | -96.61301 | 35704 ft | 460 kts | 278° |
| 2026-05-09 01:30 | 48.52241 | -96.70892 | 35696 ft | 460 kts | 277° |
| 2026-05-09 01:31 | 48.52511 | -96.80505 | 35715 ft | 459 kts | 277° |
| 2026-05-09 01:31 | 48.52772 | -96.90053 | 35681 ft | 461 kts | 277° |
| 2026-05-09 01:32 | 48.53026 | -96.99647 | 35682 ft | 461 kts | 277° |
| 2026-05-09 01:32 | 48.53270 | -97.09204 | 35683 ft | 455 kts | 277° |
| 2026-05-09 01:33 | 48.53507 | -97.18731 | 35698 ft | 457 kts | 277° |
| 2026-05-09 01:33 | 48.53736 | -97.28305 | 35679 ft | 456 kts | 278° |
| 2026-05-09 01:34 | 48.53957 | -97.37848 | 35689 ft | 458 kts | 277° |
| 2026-05-09 01:34 | 48.54167 | -97.47326 | 35674 ft | 453 kts | 278° |
| 2026-05-09 01:35 | 48.54371 | -97.56777 | 35702 ft | 453 kts | 278° |
| 2026-05-09 01:35 | 48.54567 | -97.66278 | 35696 ft | 454 kts | 277° |
| 2026-05-09 01:36 | 48.54756 | -97.75789 | 35714 ft | 453 kts | 277° |
| 2026-05-09 01:36 | 48.54935 | -97.85199 | 35726 ft | 454 kts | 278° |
| 2026-05-09 01:37 | 48.55107 | -97.94665 | 35693 ft | 450 kts | 278° |
| 2026-05-09 01:37 | 48.55272 | -98.04115 | 35705 ft | 451 kts | 278° |
| 2026-05-09 01:38 | 48.55428 | -98.13533 | 35742 ft | 449 kts | 278° |
| 2026-05-09 01:38 | 48.55576 | -98.22909 | 35701 ft | 451 kts | 278° |
| 2026-05-09 01:39 | 48.55714 | -98.32265 | 35721 ft | 448 kts | 278° |
| 2026-05-09 01:39 | 48.55848 | -98.41672 | 35737 ft | 448 kts | 278° |
| 2026-05-09 01:40 | 48.55971 | -98.50962 | 35705 ft | 446 kts | 278° |
| 2026-05-09 01:40 | 48.56086 | -98.60255 | 35685 ft | 442 kts | 279° |
| 2026-05-09 01:41 | 48.56197 | -98.69537 | 35668 ft | 448 kts | 278° |
| 2026-05-09 01:41 | 48.56298 | -98.78913 | 35709 ft | 445 kts | 278° |
| 2026-05-09 01:42 | 48.56391 | -98.88198 | 35696 ft | 441 kts | 278° |
| 2026-05-09 01:42 | 48.56477 | -98.97422 | 35734 ft | 442 kts | 279° |
| 2026-05-09 01:43 | 48.56553 | -99.06589 | 35677 ft | 437 kts | 278° |
| 2026-05-09 01:43 | 48.56627 | -99.15781 | 35722 ft | 440 kts | 278° |
| 2026-05-09 01:44 | 48.56691 | -99.24999 | 35745 ft | 442 kts | 278° |
| 2026-05-09 01:44 | 48.56744 | -99.34120 | 35698 ft | 435 kts | 278° |
| 2026-05-09 01:45 | 48.56794 | -99.43238 | 35698 ft | 436 kts | 278° |
| 2026-05-09 01:45 | 48.56836 | -99.52393 | 35742 ft | 437 kts | 279° |
| 2026-05-09 01:46 | 48.56871 | -99.61566 | 35730 ft | 438 kts | 278° |
| 2026-05-09 01:46 | 48.56897 | -99.70691 | 35707 ft | 438 kts | 278° |
| 2026-05-09 01:47 | 48.56917 | -99.79816 | 35754 ft | 439 kts | 279° |
| 2026-05-09 01:47 | 48.56929 | -99.88950 | 35758 ft | 438 kts | 278° |
| 2026-05-09 01:48 | 48.56932 | -99.93529 | 35555 ft | 437 kts | 278° |
| 2026-05-09 01:48 | 48.56934 | -99.98096 | 35813 ft | 439 kts | 278° |
| 2026-05-09 01:48 | 48.56932 | -100.07272 | 35829 ft | 440 kts | 279° |
| 2026-05-09 01:49 | 48.56927 | -100.11823 | 35721 ft | 434 kts | 279° |
| 2026-05-09 01:49 | 48.56920 | -100.16367 | 35535 ft | 432 kts | 278° |
| 2026-05-09 01:49 | 48.56913 | -100.20854 | 35808 ft | 433 kts | 279° |
| 2026-05-09 01:49 | 48.56906 | -100.25442 | 35864 ft | 437 kts | 278° |
| 2026-05-09 01:50 | 48.56897 | -100.29974 | 35569 ft | 440 kts | 278° |
| 2026-05-09 01:50 | 48.56881 | -100.34543 | 35736 ft | 433 kts | 279° |
| 2026-05-09 01:50 | 48.56853 | -100.43715 | 35705 ft | 439 kts | 278° |
| 2026-05-09 01:51 | 48.56812 | -100.52780 | 35970 ft | 434 kts | 278° |
| 2026-05-09 01:51 | 48.56792 | -100.57309 | 35618 ft | 437 kts | 279° |
| 2026-05-09 01:51 | 48.56767 | -100.61900 | 35690 ft | 434 kts | 278° |
| 2026-05-09 01:52 | 48.56717 | -100.71051 | 35745 ft | 438 kts | 277° |
| 2026-05-09 01:52 | 48.56656 | -100.80187 | 35795 ft | 438 kts | 277° |
| 2026-05-09 01:53 | 48.56588 | -100.89384 | 35758 ft | 439 kts | 278° |
| 2026-05-09 01:53 | 48.56514 | -100.98503 | 35765 ft | 439 kts | 277° |
| 2026-05-09 01:54 | 48.56431 | -101.07640 | 35761 ft | 435 kts | 278° |
| 2026-05-09 01:54 | 48.56344 | -101.16764 | 35775 ft | 439 kts | 278° |
| 2026-05-09 01:55 | 48.56247 | -101.25916 | 35713 ft | 436 kts | 278° |
| 2026-05-09 01:55 | 48.56196 | -101.30471 | 35822 ft | 436 kts | 277° |
| 2026-05-09 01:55 | 48.56144 | -101.35040 | 35754 ft | 435 kts | 278° |
| 2026-05-09 01:56 | 48.56034 | -101.44101 | 35768 ft | 436 kts | 277° |
| 2026-05-09 01:56 | 48.55916 | -101.53252 | 35766 ft | 436 kts | 278° |
| 2026-05-09 01:57 | 48.55793 | -101.62331 | 35775 ft | 437 kts | 278° |
| 2026-05-09 01:57 | 48.55660 | -101.71497 | 35766 ft | 435 kts | 277° |
| 2026-05-09 01:58 | 48.55522 | -101.80626 | 35749 ft | 438 kts | 277° |
| 2026-05-09 01:58 | 48.55374 | -101.89722 | 35756 ft | 434 kts | 277° |
| 2026-05-09 01:59 | 48.55223 | -101.98813 | 35778 ft | 437 kts | 277° |
| 2026-05-09 01:59 | 48.55062 | -102.07920 | 35779 ft | 438 kts | 277° |
| 2026-05-09 02:00 | 48.54892 | -102.17090 | 35769 ft | 436 kts | 277° |
| 2026-05-09 02:00 | 48.54719 | -102.26164 | 35763 ft | 438 kts | 277° |
| 2026-05-09 02:01 | 48.54535 | -102.35289 | 35774 ft | 435 kts | 277° |
| 2026-05-09 02:01 | 48.54348 | -102.44421 | 35763 ft | 440 kts | 277° |
| 2026-05-09 02:02 | 48.54150 | -102.53553 | 35769 ft | 438 kts | 277° |
| 2026-05-09 02:02 | 48.53945 | -102.62634 | 35771 ft | 436 kts | 277° |
| 2026-05-09 02:03 | 48.53735 | -102.71788 | 35797 ft | 438 kts | 276° |
| 2026-05-09 02:03 | 48.53514 | -102.80952 | 35787 ft | 438 kts | 276° |
| 2026-05-09 02:04 | 48.53289 | -102.90099 | 35792 ft | 439 kts | 276° |
| 2026-05-09 02:04 | 48.53052 | -102.99289 | 35786 ft | 436 kts | 276° |
| 2026-05-09 02:05 | 48.52813 | -103.08429 | 35798 ft | 437 kts | 276° |
| 2026-05-09 02:05 | 48.52566 | -103.17512 | 35788 ft | 436 kts | 276° |
| 2026-05-09 02:06 | 48.52312 | -103.26650 | 35777 ft | 439 kts | 276° |
| 2026-05-09 02:07 | 48.51916 | -103.40334 | 35799 ft | 438 kts | 276° |
| 2026-05-09 02:07 | 48.51643 | -103.49458 | 35796 ft | 439 kts | 276° |
| 2026-05-09 02:08 | 48.51361 | -103.58633 | 35787 ft | 438 kts | 276° |
| 2026-05-09 02:08 | 48.51073 | -103.67783 | 35805 ft | 438 kts | 275° |
| 2026-05-09 02:09 | 48.50778 | -103.76901 | 35796 ft | 437 kts | 275° |
| 2026-05-09 02:09 | 48.50476 | -103.86043 | 35792 ft | 439 kts | 275° |
| 2026-05-09 02:10 | 48.50166 | -103.95187 | 35799 ft | 439 kts | 275° |
| 2026-05-09 02:10 | 48.49881 | -104.04370 | 35790 ft | 438 kts | 275° |
| 2026-05-09 02:11 | 48.49624 | -104.13479 | 35787 ft | 439 kts | 275° |
| 2026-05-09 02:11 | 48.49358 | -104.22643 | 35789 ft | 439 kts | 275° |
| 2026-05-09 02:12 | 48.49085 | -104.31805 | 35784 ft | 440 kts | 275° |
| 2026-05-09 02:12 | 48.48804 | -104.40973 | 35782 ft | 437 kts | 276° |
| 2026-05-09 02:13 | 48.48518 | -104.50141 | 35792 ft | 440 kts | 275° |
| 2026-05-09 02:13 | 48.48224 | -104.59261 | 35785 ft | 439 kts | 275° |
| 2026-05-09 02:14 | 48.47922 | -104.68451 | 35809 ft | 439 kts | 274° |
| 2026-05-09 02:14 | 48.47614 | -104.77558 | 35805 ft | 438 kts | 274° |
| 2026-05-09 02:15 | 48.47298 | -104.86716 | 35815 ft | 441 kts | 274° |
| 2026-05-09 02:15 | 48.46973 | -104.95911 | 35811 ft | 441 kts | 274° |
| 2026-05-09 02:16 | 48.46641 | -105.05064 | 35813 ft | 438 kts | 274° |
| 2026-05-09 02:16 | 48.46304 | -105.14206 | 35799 ft | 438 kts | 274° |
| 2026-05-09 02:17 | 48.45961 | -105.23310 | 35793 ft | 440 kts | 274° |
| 2026-05-09 02:17 | 48.45607 | -105.32513 | 35793 ft | 442 kts | 274° |
| 2026-05-09 02:18 | 48.45246 | -105.41682 | 35809 ft | 441 kts | 274° |
| 2026-05-09 02:18 | 48.44878 | -105.50845 | 35782 ft | 442 kts | 274° |
| 2026-05-09 02:18 | 48.44691 | -105.55433 | 35913 ft | 442 kts | 274° |
| 2026-05-09 02:19 | 48.44500 | -105.60083 | 35926 ft | 439 kts | 274° |
| 2026-05-09 02:19 | 48.44119 | -105.69222 | 35563 ft | 441 kts | 274° |
| 2026-05-09 02:19 | 48.43924 | -105.73804 | 35922 ft | 441 kts | 273° |
| 2026-05-09 02:20 | 48.43729 | -105.78397 | 35549 ft | 441 kts | 273° |
| 2026-05-09 02:20 | 48.43531 | -105.82954 | 35862 ft | 440 kts | 273° |
| 2026-05-09 02:20 | 48.43330 | -105.87606 | 35803 ft | 443 kts | 273° |
| 2026-05-09 02:21 | 48.42925 | -105.96792 | 35813 ft | 443 kts | 273° |
| 2026-05-09 02:21 | 48.42510 | -106.06008 | 35825 ft | 443 kts | 273° |
| 2026-05-09 02:22 | 48.42090 | -106.15184 | 35828 ft | 442 kts | 273° |
| 2026-05-09 02:22 | 48.41663 | -106.24371 | 35823 ft | 443 kts | 272° |
| 2026-05-09 02:23 | 48.41226 | -106.33601 | 35803 ft | 444 kts | 272° |
| 2026-05-09 02:23 | 48.40779 | -106.42873 | 35820 ft | 444 kts | 272° |
| 2026-05-09 02:24 | 48.40329 | -106.52051 | 35800 ft | 443 kts | 272° |
| 2026-05-09 02:24 | 48.39867 | -106.61337 | 35826 ft | 445 kts | 272° |
| 2026-05-09 02:25 | 48.39401 | -106.70558 | 35827 ft | 446 kts | 271° |
| 2026-05-09 02:25 | 48.38923 | -106.79843 | 35832 ft | 445 kts | 271° |
| 2026-05-09 02:26 | 48.38440 | -106.89106 | 35804 ft | 446 kts | 271° |
| 2026-05-09 02:26 | 48.37948 | -106.98367 | 35809 ft | 446 kts | 271° |
| 2026-05-09 02:27 | 48.37448 | -107.07658 | 35815 ft | 447 kts | 271° |
| 2026-05-09 02:27 | 48.36943 | -107.16890 | 35813 ft | 446 kts | 271° |
| 2026-05-09 02:28 | 48.36431 | -107.26129 | 35813 ft | 446 kts | 271° |
| 2026-05-09 02:28 | 48.35909 | -107.35420 | 35824 ft | 447 kts | 270° |
| 2026-05-09 02:29 | 48.35377 | -107.44708 | 35803 ft | 447 kts | 270° |
| 2026-05-09 02:29 | 48.34843 | -107.53935 | 35805 ft | 446 kts | 270° |
| 2026-05-09 02:30 | 48.34298 | -107.63233 | 35815 ft | 449 kts | 270° |
| 2026-05-09 02:30 | 48.33740 | -107.72589 | 35819 ft | 449 kts | 269° |
| 2026-05-09 02:31 | 48.33179 | -107.81886 | 35824 ft | 448 kts | 269° |
| 2026-05-09 02:31 | 48.32613 | -107.91125 | 35810 ft | 448 kts | 269° |
| 2026-05-09 02:32 | 48.32035 | -108.00455 | 35818 ft | 450 kts | 269° |
| 2026-05-09 02:32 | 48.31451 | -108.09751 | 35821 ft | 449 kts | 269° |
| 2026-05-09 02:33 | 48.30862 | -108.18996 | 35835 ft | 449 kts | 269° |
| 2026-05-09 02:33 | 48.30263 | -108.28301 | 35838 ft | 451 kts | 269° |
| 2026-05-09 02:34 | 48.29652 | -108.37659 | 35828 ft | 450 kts | 269° |
| 2026-05-09 02:34 | 48.29036 | -108.46965 | 35830 ft | 450 kts | 268° |
| 2026-05-09 02:35 | 48.28414 | -108.56262 | 35839 ft | 450 kts | 268° |
| 2026-05-09 02:35 | 48.27783 | -108.65575 | 35854 ft | 452 kts | 268° |
| 2026-05-09 02:36 | 48.27140 | -108.74940 | 35864 ft | 452 kts | 268° |
| 2026-05-09 02:36 | 48.26488 | -108.84335 | 35846 ft | 451 kts | 268° |
| 2026-05-09 02:37 | 48.25831 | -108.93688 | 35863 ft | 453 kts | 267° |
| 2026-05-09 02:37 | 48.25167 | -109.03035 | 35871 ft | 451 kts | 267° |
| 2026-05-09 02:38 | 48.24496 | -109.12363 | 35868 ft | 453 kts | 267° |
| 2026-05-09 02:38 | 48.23814 | -109.21738 | 35872 ft | 452 kts | 267° |
| 2026-05-09 02:39 | 48.23124 | -109.31119 | 35862 ft | 455 kts | 267° |
| 2026-05-09 02:39 | 48.22778 | -109.35796 | 35964 ft | 459 kts | 266° |
| 2026-05-09 02:39 | 48.22427 | -109.40502 | 36362 ft | 457 kts | 266° |
| 2026-05-09 02:39 | 48.22071 | -109.45222 | 37001 ft | 451 kts | 267° |
| 2026-05-09 02:40 | 48.21723 | -109.49830 | 37565 ft | 447 kts | 266° |
| 2026-05-09 02:40 | 48.21372 | -109.54470 | 37881 ft | 448 kts | 266° |
| 2026-05-09 02:40 | 48.21022 | -109.59062 | 37875 ft | 449 kts | 266° |
| 2026-05-09 02:41 | 48.20307 | -109.68347 | 37875 ft | 448 kts | 265° |
| 2026-05-09 02:41 | 48.19594 | -109.77534 | 37879 ft | 449 kts | 265° |
| 2026-05-09 02:42 | 48.18864 | -109.86829 | 37877 ft | 448 kts | 265° |
| 2026-05-09 02:42 | 48.18133 | -109.96035 | 37867 ft | 450 kts | 265° |
| 2026-05-09 02:43 | 48.17387 | -110.05353 | 37860 ft | 451 kts | 265° |
| 2026-05-09 02:43 | 48.16637 | -110.14603 | 37862 ft | 450 kts | 265° |
| 2026-05-09 02:44 | 48.15875 | -110.23921 | 37848 ft | 452 kts | 265° |
| 2026-05-09 02:44 | 48.15112 | -110.33143 | 37849 ft | 450 kts | 265° |
| 2026-05-09 02:45 | 48.14339 | -110.42406 | 37849 ft | 453 kts | 265° |
| 2026-05-09 02:45 | 48.13551 | -110.51750 | 37857 ft | 454 kts | 264° |
| 2026-05-09 02:46 | 48.12761 | -110.61020 | 37888 ft | 452 kts | 265° |
| 2026-05-09 02:46 | 48.11955 | -110.70389 | 37865 ft | 451 kts | 264° |
| 2026-05-09 02:47 | 48.11151 | -110.79649 | 37918 ft | 453 kts | 264° |
| 2026-05-09 02:47 | 48.10335 | -110.88963 | 37884 ft | 451 kts | 264° |
| 2026-05-09 02:48 | 48.09511 | -110.98273 | 37902 ft | 454 kts | 264° |
| 2026-05-09 02:48 | 48.08676 | -111.07614 | 37889 ft | 455 kts | 263° |
| 2026-05-09 02:49 | 48.07836 | -111.16936 | 37869 ft | 454 kts | 263° |
| 2026-05-09 02:49 | 48.06983 | -111.26309 | 37900 ft | 456 kts | 263° |
| 2026-05-09 02:50 | 48.06123 | -111.35662 | 37884 ft | 457 kts | 263° |
| 2026-05-09 02:50 | 48.05252 | -111.45069 | 37894 ft | 458 kts | 263° |
| 2026-05-09 02:51 | 48.04377 | -111.54423 | 37874 ft | 457 kts | 263° |
| 2026-05-09 02:51 | 48.03495 | -111.63763 | 37909 ft | 458 kts | 263° |
| 2026-05-09 02:52 | 48.02600 | -111.73155 | 37894 ft | 460 kts | 262° |
| 2026-05-09 02:52 | 48.01694 | -111.82593 | 37914 ft | 460 kts | 262° |
| 2026-05-09 02:53 | 48.00779 | -111.92025 | 37898 ft | 461 kts | 262° |
| 2026-05-09 02:53 | 47.99773 | -112.01483 | 37903 ft | 461 kts | 260° |
| 2026-05-09 02:54 | 47.98554 | -112.10835 | 37932 ft | 461 kts | 259° |
| 2026-05-09 02:54 | 47.97314 | -112.20205 | 37970 ft | 462 kts | 259° |
| 2026-05-09 02:55 | 47.96069 | -112.29513 | 37944 ft | 461 kts | 259° |
| 2026-05-09 02:55 | 47.94805 | -112.38895 | 37955 ft | 463 kts | 259° |
| 2026-05-09 02:56 | 47.93538 | -112.48234 | 37943 ft | 463 kts | 259° |
| 2026-05-09 02:56 | 47.92258 | -112.57605 | 37974 ft | 464 kts | 259° |
| 2026-05-09 02:57 | 47.90968 | -112.66992 | 37907 ft | 465 kts | 258° |
| 2026-05-09 02:57 | 47.90317 | -112.71703 | 38088 ft | 466 kts | 258° |
| 2026-05-09 02:57 | 47.89664 | -112.76409 | 37986 ft | 465 kts | 258° |
| 2026-05-09 02:58 | 47.88352 | -112.85833 | 38061 ft | 467 kts | 259° |
| 2026-05-09 02:58 | 47.87691 | -112.90552 | 37933 ft | 466 kts | 259° |
| 2026-05-09 02:58 | 47.87030 | -112.95260 | 38040 ft | 464 kts | 258° |
| 2026-05-09 02:58 | 47.86372 | -112.99937 | 37936 ft | 465 kts | 258° |
| 2026-05-09 02:59 | 47.85700 | -113.04688 | 38003 ft | 467 kts | 258° |
| 2026-05-09 02:59 | 47.84372 | -113.14043 | 37999 ft | 467 kts | 258° |
| 2026-05-09 03:00 | 47.83023 | -113.23486 | 37981 ft | 466 kts | 258° |
| 2026-05-09 03:00 | 47.81666 | -113.32927 | 38009 ft | 468 kts | 258° |
| 2026-05-09 03:01 | 47.80307 | -113.42318 | 38024 ft | 468 kts | 258° |
| 2026-05-09 03:01 | 47.78938 | -113.51724 | 38043 ft | 466 kts | 258° |
| 2026-05-09 03:02 | 47.77564 | -113.61114 | 37973 ft | 467 kts | 258° |
| 2026-05-09 03:02 | 47.76182 | -113.70493 | 38028 ft | 467 kts | 257° |
| 2026-05-09 03:03 | 47.74784 | -113.79912 | 38051 ft | 468 kts | 257° |
| 2026-05-09 03:03 | 47.73384 | -113.89302 | 38049 ft | 466 kts | 257° |
| 2026-05-09 03:04 | 47.71980 | -113.98666 | 37979 ft | 468 kts | 256° |
| 2026-05-09 03:04 | 47.70562 | -114.08065 | 38002 ft | 468 kts | 257° |
| 2026-05-09 03:05 | 47.69138 | -114.17451 | 37979 ft | 469 kts | 257° |
| 2026-05-09 03:05 | 47.67696 | -114.26894 | 38031 ft | 470 kts | 257° |
| 2026-05-09 03:06 | 47.66257 | -114.36257 | 38016 ft | 469 kts | 257° |
| 2026-05-09 03:06 | 47.64804 | -114.45664 | 38049 ft | 470 kts | 257° |
| 2026-05-09 03:07 | 47.63343 | -114.55063 | 38013 ft | 469 kts | 257° |
| 2026-05-09 03:07 | 47.61863 | -114.64530 | 38001 ft | 473 kts | 257° |
| 2026-05-09 03:08 | 47.60389 | -114.73907 | 38031 ft | 474 kts | 256° |
| 2026-05-09 03:08 | 47.58889 | -114.83392 | 38043 ft | 472 kts | 257° |
| 2026-05-09 03:09 | 47.57397 | -114.92773 | 38066 ft | 472 kts | 257° |
| 2026-05-09 03:09 | 47.55882 | -115.02246 | 38051 ft | 472 kts | 257° |
| 2026-05-09 03:10 | 47.54368 | -115.11654 | 37985 ft | 471 kts | 257° |
| 2026-05-09 03:10 | 47.52848 | -115.21052 | 37996 ft | 471 kts | 257° |
| 2026-05-09 03:11 | 47.51311 | -115.30496 | 38012 ft | 473 kts | 257° |
| 2026-05-09 03:11 | 47.49777 | -115.39874 | 38023 ft | 473 kts | 257° |
| 2026-05-09 03:12 | 47.48225 | -115.49309 | 38020 ft | 475 kts | 257° |
| 2026-05-09 03:12 | 47.46666 | -115.58729 | 37993 ft | 474 kts | 257° |
| 2026-05-09 03:13 | 47.46074 | -115.73161 | 38037 ft | 474 kts | 275° |
| 2026-05-09 03:13 | 47.46744 | -115.82834 | 38011 ft | 475 kts | 275° |
| 2026-05-09 03:14 | 47.47378 | -115.92539 | 38068 ft | 475 kts | 275° |
| 2026-05-09 03:14 | 47.47982 | -116.02181 | 37989 ft | 475 kts | 275° |
| 2026-05-09 03:15 | 47.48571 | -116.11884 | 38007 ft | 477 kts | 275° |
| 2026-05-09 03:15 | 47.49145 | -116.21579 | 38017 ft | 474 kts | 275° |
| 2026-05-09 03:16 | 47.49710 | -116.31284 | 38006 ft | 474 kts | 275° |
| 2026-05-09 03:16 | 47.50261 | -116.40925 | 37995 ft | 475 kts | 275° |
| 2026-05-09 03:17 | 47.50805 | -116.50614 | 38000 ft | 474 kts | 275° |
| 2026-05-09 03:17 | 47.51341 | -116.60310 | 38020 ft | 474 kts | 275° |
| 2026-05-09 03:18 | 47.51870 | -116.70022 | 37979 ft | 477 kts | 274° |
| 2026-05-09 03:18 | 47.52391 | -116.79758 | 37976 ft | 477 kts | 274° |
| 2026-05-09 03:19 | 47.52905 | -116.89507 | 37982 ft | 474 kts | 274° |
| 2026-05-09 03:19 | 47.53407 | -116.99192 | 37985 ft | 475 kts | 274° |
| 2026-05-09 03:20 | 47.53902 | -117.08889 | 38010 ft | 475 kts | 274° |
| 2026-05-09 03:20 | 47.54388 | -117.18593 | 38012 ft | 475 kts | 274° |
| 2026-05-09 03:21 | 47.54866 | -117.28304 | 38019 ft | 473 kts | 274° |
| 2026-05-09 03:21 | 47.55338 | -117.37964 | 38027 ft | 472 kts | 274° |
| 2026-05-09 03:22 | 47.55798 | -117.47675 | 38004 ft | 474 kts | 274° |
| 2026-05-09 03:22 | 47.56251 | -117.57375 | 38004 ft | 474 kts | 274° |
| 2026-05-09 03:23 | 47.57452 | -117.66936 | 38001 ft | 475 kts | 288° |
| 2026-05-09 03:23 | 47.59659 | -117.76183 | 37988 ft | 476 kts | 289° |
| 2026-05-09 03:24 | 47.61845 | -117.85322 | 38006 ft | 475 kts | 289° |
| 2026-05-09 03:24 | 47.64038 | -117.94566 | 37992 ft | 475 kts | 289° |
| 2026-05-09 03:25 | 47.66206 | -118.03770 | 37977 ft | 478 kts | 288° |
| 2026-05-09 03:25 | 47.68358 | -118.12961 | 37972 ft | 475 kts | 288° |
| 2026-05-09 03:26 | 47.70524 | -118.22255 | 37956 ft | 474 kts | 289° |
| 2026-05-09 03:26 | 47.72656 | -118.31447 | 37964 ft | 474 kts | 288° |
| 2026-05-09 03:27 | 47.74792 | -118.40694 | 37956 ft | 472 kts | 289° |
| 2026-05-09 03:27 | 47.76903 | -118.49877 | 37951 ft | 474 kts | 289° |
| 2026-05-09 03:28 | 47.79018 | -118.59116 | 37954 ft | 473 kts | 289° |
| 2026-05-09 03:28 | 47.81133 | -118.68397 | 37966 ft | 472 kts | 288° |
| 2026-05-09 03:29 | 47.83225 | -118.77618 | 37956 ft | 473 kts | 288° |
| 2026-05-09 03:29 | 47.85306 | -118.86828 | 37950 ft | 473 kts | 288° |
| 2026-05-09 03:30 | 47.87395 | -118.96114 | 37953 ft | 472 kts | 288° |
| 2026-05-09 03:30 | 47.89467 | -119.05365 | 37953 ft | 471 kts | 288° |
| 2026-05-09 03:31 | 47.91523 | -119.14587 | 37956 ft | 471 kts | 288° |
| 2026-05-09 03:31 | 47.93572 | -119.23815 | 37955 ft | 471 kts | 288° |
| 2026-05-09 03:32 | 47.95610 | -119.33034 | 37968 ft | 471 kts | 288° |
| 2026-05-09 03:32 | 47.97636 | -119.42241 | 37983 ft | 469 kts | 288° |
| 2026-05-09 03:33 | 47.99652 | -119.51438 | 37983 ft | 468 kts | 288° |
| 2026-05-09 03:33 | 48.01678 | -119.60731 | 37985 ft | 468 kts | 288° |
| 2026-05-09 03:34 | 48.03685 | -119.69976 | 37995 ft | 471 kts | 287° |
| 2026-05-09 03:34 | 48.05674 | -119.79179 | 38003 ft | 468 kts | 287° |
| 2026-05-09 03:35 | 48.07664 | -119.88426 | 38037 ft | 467 kts | 287° |
| 2026-05-09 03:35 | 48.09643 | -119.97662 | 38023 ft | 468 kts | 287° |
| 2026-05-09 03:36 | 48.11602 | -120.06849 | 38069 ft | 468 kts | 287° |
| 2026-05-09 03:36 | 48.13282 | -120.14758 | 38026 ft | 468 kts | 287° |
| 2026-05-09 03:37 | 48.15013 | -120.24136 | 38041 ft | 468 kts | 284° |
| 2026-05-09 03:37 | 48.16643 | -120.33511 | 38033 ft | 468 kts | 284° |
| 2026-05-09 03:38 | 48.18285 | -120.42931 | 38054 ft | 470 kts | 284° |
| 2026-05-09 03:38 | 48.19931 | -120.52386 | 38085 ft | 470 kts | 284° |
| 2026-05-09 03:39 | 48.21557 | -120.61756 | 37544 ft | 461 kts | 284° |
| 2026-05-09 03:39 | 48.22357 | -120.66383 | 36614 ft | 464 kts | 284° |
| 2026-05-09 03:39 | 48.23161 | -120.71045 | 35780 ft | 465 kts | 284° |
| 2026-05-09 03:40 | 48.23965 | -120.75713 | 35069 ft | 466 kts | 285° |
| 2026-05-09 03:40 | 48.24767 | -120.80381 | 34196 ft | 468 kts | 285° |
| 2026-05-09 03:40 | 48.25579 | -120.85122 | 33247 ft | 470 kts | 285° |
| 2026-05-09 03:40 | 48.26379 | -120.89803 | 32418 ft | 466 kts | 286° |
| 2026-05-09 03:41 | 48.27180 | -120.94501 | 31493 ft | 466 kts | 286° |
| 2026-05-09 03:41 | 48.27972 | -120.99161 | 30535 ft | 465 kts | 287° |
| 2026-05-09 03:41 | 48.28761 | -121.03818 | 29956 ft | 456 kts | 287° |
| 2026-05-09 03:41 | 48.29531 | -121.08376 | 29447 ft | 447 kts | 287° |
| 2026-05-09 03:42 | 48.30285 | -121.12849 | 28927 ft | 440 kts | 287° |
| 2026-05-09 03:42 | 48.31019 | -121.17215 | 28377 ft | 433 kts | 287° |
| 2026-05-09 03:42 | 48.31748 | -121.21556 | 27831 ft | 427 kts | 287° |
| 2026-05-09 03:42 | 48.32466 | -121.25848 | 27292 ft | 420 kts | 287° |
| 2026-05-09 03:43 | 48.33170 | -121.30059 | 26747 ft | 414 kts | 287° |
| 2026-05-09 03:43 | 48.33856 | -121.34180 | 26197 ft | 408 kts | 287° |
| 2026-05-09 03:43 | 48.34538 | -121.38283 | 25679 ft | 403 kts | 287° |
| 2026-05-09 03:43 | 48.35213 | -121.42352 | 25137 ft | 397 kts | 287° |
| 2026-05-09 03:44 | 48.35867 | -121.46309 | 24594 ft | 392 kts | 287° |
| 2026-05-09 03:44 | 48.36513 | -121.50223 | 24075 ft | 386 kts | 287° |
| 2026-05-09 03:44 | 48.37152 | -121.54105 | 23551 ft | 381 kts | 287° |
| 2026-05-09 03:44 | 48.37782 | -121.57938 | 23045 ft | 376 kts | 287° |
| 2026-05-09 03:45 | 48.38402 | -121.61719 | 22523 ft | 372 kts | 287° |
| 2026-05-09 03:45 | 48.39014 | -121.65459 | 22006 ft | 367 kts | 286° |
| 2026-05-09 03:45 | 48.39659 | -121.69115 | 21505 ft | 361 kts | 291° |
| 2026-05-09 03:45 | 48.40632 | -121.72530 | 21014 ft | 355 kts | 300° |
| 2026-05-09 03:46 | 48.41961 | -121.75653 | 20531 ft | 355 kts | 306° |
| 2026-05-09 03:46 | 48.43443 | -121.78685 | 19998 ft | 366 kts | 307° |
| 2026-05-09 03:46 | 48.44935 | -121.81739 | 19453 ft | 362 kts | 307° |
| 2026-05-09 03:46 | 48.46413 | -121.84782 | 18929 ft | 358 kts | 307° |
| 2026-05-09 03:47 | 48.47861 | -121.87775 | 18419 ft | 354 kts | 307° |
| 2026-05-09 03:47 | 48.49311 | -121.90781 | 17787 ft | 354 kts | 306° |
| 2026-05-09 03:47 | 48.50739 | -121.93748 | 17235 ft | 351 kts | 306° |
| 2026-05-09 03:47 | 48.52154 | -121.96695 | 16703 ft | 348 kts | 306° |
| 2026-05-09 03:48 | 48.53555 | -121.99616 | 16188 ft | 344 kts | 306° |
| 2026-05-09 03:48 | 48.54948 | -122.02524 | 15667 ft | 341 kts | 306° |
| 2026-05-09 03:48 | 48.56318 | -122.05389 | 15152 ft | 338 kts | 306° |
| 2026-05-09 03:48 | 48.57690 | -122.08258 | 14660 ft | 334 kts | 306° |
| 2026-05-09 03:49 | 48.59031 | -122.11096 | 14146 ft | 331 kts | 303° |
| 2026-05-09 03:49 | 48.60113 | -122.14105 | 13746 ft | 328 kts | 296° |
| 2026-05-09 03:49 | 48.61082 | -122.17285 | 13662 ft | 337 kts | 296° |
| 2026-05-09 03:49 | 48.62052 | -122.20499 | 13548 ft | 338 kts | 295° |
| 2026-05-09 03:50 | 48.63022 | -122.23722 | 13401 ft | 336 kts | 295° |
| 2026-05-09 03:50 | 48.63988 | -122.26939 | 13246 ft | 335 kts | 295° |
| 2026-05-09 03:50 | 48.64946 | -122.30129 | 13092 ft | 336 kts | 295° |
| 2026-05-09 03:50 | 48.65911 | -122.33347 | 12918 ft | 335 kts | 295° |
| 2026-05-09 03:51 | 48.66872 | -122.36560 | 12753 ft | 335 kts | 295° |
| 2026-05-09 03:51 | 48.67830 | -122.39765 | 12600 ft | 336 kts | 295° |
| 2026-05-09 03:51 | 48.68782 | -122.42953 | 12415 ft | 333 kts | 295° |
| 2026-05-09 03:51 | 48.69726 | -122.46118 | 12266 ft | 335 kts | 295° |
| 2026-05-09 03:52 | 48.70702 | -122.49315 | 12097 ft | 333 kts | 298° |
| 2026-05-09 03:52 | 48.72020 | -122.52225 | 11939 ft | 335 kts | 310° |
| 2026-05-09 03:52 | 48.73601 | -122.54797 | 11813 ft | 335 kts | 313° |
| 2026-05-09 03:52 | 48.75189 | -122.57300 | 11699 ft | 334 kts | 313° |
| 2026-05-09 03:53 | 48.76816 | -122.59862 | 11574 ft | 334 kts | 313° |
| 2026-05-09 03:53 | 48.78427 | -122.62404 | 11446 ft | 334 kts | 313° |
| 2026-05-09 03:53 | 48.80015 | -122.64915 | 11320 ft | 334 kts | 313° |
| 2026-05-09 03:53 | 48.81619 | -122.67454 | 11198 ft | 334 kts | 312° |
| 2026-05-09 03:54 | 48.83229 | -122.70004 | 11074 ft | 333 kts | 312° |
| 2026-05-09 03:54 | 48.84826 | -122.72537 | 10947 ft | 333 kts | 312° |
| 2026-05-09 03:54 | 48.86429 | -122.75082 | 10823 ft | 333 kts | 312° |
| 2026-05-09 03:54 | 48.88039 | -122.77641 | 10699 ft | 332 kts | 312° |
| 2026-05-09 03:55 | 48.89576 | -122.80086 | 10558 ft | 318 kts | 312° |
| 2026-05-09 03:55 | 48.91076 | -122.82472 | 10447 ft | 304 kts | 312° |
| 2026-05-09 03:55 | 48.92508 | -122.84755 | 10337 ft | 292 kts | 312° |
| 2026-05-09 03:55 | 48.93884 | -122.86950 | 10220 ft | 281 kts | 312° |
| 2026-05-09 03:56 | 48.95187 | -122.89030 | 10108 ft | 270 kts | 312° |
| 2026-05-09 03:56 | 48.96460 | -122.91065 | 10018 ft | 259 kts | 312° |
| 2026-05-09 03:56 | 48.97674 | -122.93008 | 9835 ft | 253 kts | 312° |
| 2026-05-09 03:56 | 48.98886 | -122.94948 | 9541 ft | 250 kts | 312° |
| 2026-05-09 03:57 | 49.00069 | -122.96843 | 9280 ft | 246 kts | 312° |
| 2026-05-09 03:57 | 49.01240 | -122.98719 | 8961 ft | 243 kts | 312° |
| 2026-05-09 03:57 | 49.02394 | -123.00571 | 8737 ft | 237 kts | 312° |
| 2026-05-09 03:57 | 49.03512 | -123.02364 | 8537 ft | 233 kts | 312° |
| 2026-05-09 03:58 | 49.04629 | -123.04160 | 8321 ft | 235 kts | 312° |
| 2026-05-09 03:58 | 49.05639 | -123.06100 | 8061 ft | 233 kts | 298° |
| 2026-05-09 03:58 | 49.06342 | -123.08315 | 7848 ft | 234 kts | 294° |
| 2026-05-09 03:58 | 49.06995 | -123.10550 | 7620 ft | 234 kts | 294° |
| 2026-05-09 03:59 | 49.07662 | -123.12843 | 7385 ft | 235 kts | 294° |
| 2026-05-09 03:59 | 49.08323 | -123.15110 | 7156 ft | 234 kts | 293° |
| 2026-05-09 03:59 | 49.08979 | -123.17361 | 6904 ft | 231 kts | 293° |
| 2026-05-09 03:59 | 49.09559 | -123.19652 | 6677 ft | 234 kts | 284° |
| 2026-05-09 04:00 | 49.09869 | -123.22028 | 6449 ft | 227 kts | 279° |
| 2026-05-09 04:00 | 49.10128 | -123.24371 | 6228 ft | 222 kts | 279° |
| 2026-05-09 04:00 | 49.10388 | -123.26698 | 6008 ft | 222 kts | 279° |
| 2026-05-09 04:00 | 49.10646 | -123.28992 | 5849 ft | 220 kts | 280° |
| 2026-05-09 04:01 | 49.10907 | -123.31299 | 5594 ft | 222 kts | 280° |
| 2026-05-09 04:01 | 49.11170 | -123.33618 | 5219 ft | 219 kts | 279° |
| 2026-05-09 04:01 | 49.11424 | -123.35865 | 4841 ft | 215 kts | 279° |
| 2026-05-09 04:01 | 49.11674 | -123.38094 | 4469 ft | 212 kts | 280° |
| 2026-05-09 04:02 | 49.11921 | -123.40293 | 4109 ft | 209 kts | 280° |
| 2026-05-09 04:02 | 49.12156 | -123.42392 | 4002 ft | 194 kts | 280° |
| 2026-05-09 04:02 | 49.12380 | -123.44385 | 3993 ft | 187 kts | 280° |
| 2026-05-09 04:02 | 49.12597 | -123.46332 | 3997 ft | 186 kts | 280° |
| 2026-05-09 04:03 | 49.12812 | -123.48262 | 4001 ft | 185 kts | 280° |
| 2026-05-09 04:03 | 49.13031 | -123.50220 | 3995 ft | 185 kts | 280° |
| 2026-05-09 04:03 | 49.13247 | -123.52156 | 3994 ft | 185 kts | 279° |
| 2026-05-09 04:03 | 49.13506 | -123.54072 | 3973 ft | 187 kts | 291° |
| 2026-05-09 04:04 | 49.14336 | -123.55572 | 3751 ft | 190 kts | 329° |
| 2026-05-09 04:04 | 49.15615 | -123.55958 | 3493 ft | 189 kts | 3° |
| 2026-05-09 04:04 | 49.16914 | -123.55746 | 3273 ft | 189 kts | 6° |
| 2026-05-09 04:04 | 49.18220 | -123.55523 | 3055 ft | 187 kts | 6° |
| 2026-05-09 04:05 | 49.19487 | -123.55307 | 3007 ft | 186 kts | 6° |
| 2026-05-09 04:05 | 49.20702 | -123.54594 | 2988 ft | 188 kts | 41° |
| 2026-05-09 04:05 | 49.21411 | -123.52934 | 2994 ft | 188 kts | 65° |
| 2026-05-09 04:05 | 49.21942 | -123.51118 | 2995 ft | 189 kts | 66° |
| 2026-05-09 04:06 | 49.22484 | -123.49262 | 2996 ft | 190 kts | 66° |
| 2026-05-09 04:06 | 49.23016 | -123.47424 | 2997 ft | 190 kts | 67° |
| 2026-05-09 04:06 | 49.23342 | -123.45499 | 2996 ft | 189 kts | 88° |
| 2026-05-09 04:06 | 49.23225 | -123.43526 | 2988 ft | 181 kts | 100° |
| 2026-05-09 04:07 | 49.22994 | -123.41682 | 2841 ft | 176 kts | 101° |
| 2026-05-09 04:07 | 49.22769 | -123.39844 | 2617 ft | 172 kts | 101° |
| 2026-05-09 04:07 | 49.22568 | -123.38093 | 2387 ft | 162 kts | 101° |
| 2026-05-09 04:07 | 49.22384 | -123.36468 | 2182 ft | 150 kts | 101° |
| 2026-05-09 04:08 | 49.22207 | -123.34920 | 1990 ft | 147 kts | 101° |
| 2026-05-09 04:08 | 49.22033 | -123.33381 | 1797 ft | 147 kts | 101° |
| 2026-05-09 04:08 | 49.21859 | -123.31840 | 1600 ft | 147 kts | 100° |
| 2026-05-09 04:08 | 49.21685 | -123.30308 | 1402 ft | 145 kts | 100° |
| 2026-05-09 04:09 | 49.21514 | -123.28799 | 1205 ft | 142 kts | 101° |
| 2026-05-09 04:09 | 49.21347 | -123.27325 | 1013 ft | 141 kts | 101° |
| 2026-05-09 04:09 | 49.21180 | -123.25857 | 821 ft | 139 kts | 101° |
| 2026-05-09 04:09 | 49.21014 | -123.24410 | 630 ft | 138 kts | 101° |
| 2026-05-09 04:10 | 49.20852 | -123.22961 | 444 ft | 137 kts | 101° |
| 2026-05-09 04:10 | 49.20687 | -123.21544 | 257 ft | 135 kts | 102° |
| 2026-05-09 04:10 | 49.20525 | -123.20142 | 68 ft | 134 kts | 102° |
| 2026-05-09 04:10 | 49.20375 | -123.18860 | 26 ft | 106 kts | 100° |
| 2026-05-09 04:11 | 49.20283 | -123.18014 | 25 ft | 42 kts | 99° |
| 2026-05-09 04:11 | 49.20226 | -123.17727 | 25 ft | 25 kts | 123° |
| 2026-05-09 04:11 | 49.20147 | -123.17557 | 25 ft | 13 kts | 131° |
| 2026-05-09 04:11 | 49.20086 | -123.17447 | 24 ft | 13 kts | 130° |
| 2026-05-09 04:12 | 49.20035 | -123.17355 | 22 ft | 9 kts | 130° |
| 2026-05-09 04:12 | 49.19992 | -123.17275 | 22 ft | 9 kts | 129° |
| 2026-05-09 04:12 | 49.19971 | -123.17180 | 22 ft | 9 kts | 103° |
| 2026-05-09 04:12 | 49.19925 | -123.17148 | 22 ft | 7 kts | 203° |
| 2026-05-09 04:13 | 49.19873 | -123.17185 | 22 ft | 8 kts | 195° |
| 2026-05-09 04:13 | 49.19815 | -123.17193 | 22 ft | 8 kts | 181° |
| 2026-05-09 04:13 | 49.19753 | -123.17194 | 22 ft | 9 kts | 181° |
| 2026-05-09 04:13 | 49.19716 | -123.17207 | 22 ft | 2 kts | 251° |
| 2026-05-09 04:14 | 49.19721 | -123.17234 | 22 ft | 2 kts | 292° |
| 2026-05-09 04:14 | 49.19726 | -123.17248 | 22 ft | 3 kts | 300° |
| 2026-05-09 04:14 | 49.19734 | -123.17268 | 22 ft | 0 kts | 302° |